Time;durP1;ratioP1;P1;durP2;ratioP2;P2;SDS_P1;SDS_P2;PMS_P1;PMS_P2;Temp;Humidity;BMP_temperature;BMP_pressure;BME280_temperature;BME280_humidity;BME280_pressure;Samples;Min_cycle;Max_cycle;Signal;HPM_P1;HPM_P2
2022/06/16 00:02:06;;;;;;;1.42;0.95;;;23.90;44.90;;;;;;4892275;29;20029;-81
2022/06/16 00:05:17;;;;;;;2.25;1.10;;;23.80;44.90;;;;;;4905485;29;20401;-81
2022/06/16 00:08:07;;;;;;;1.73;1.20;;;23.80;45.00;;;;;;4891905;29;20469;-82
2022/06/16 00:10:35;;;;;;;1.88;1.20;;;23.70;45.00;;;;;;4908112;29;20047;-81
2022/06/16 00:13:22;;;;;;;1.30;1.20;;;23.70;45.00;;;;;;4890426;29;20147;-81
2022/06/16 00:15:59;;;;;;;1.80;1.30;;;23.60;45.00;;;;;;4897119;29;20395;-82
2022/06/16 00:18:28;;;;;;;1.95;1.40;;;23.70;45.10;;;;;;4878705;29;20029;-81
2022/06/16 00:20:56;;;;;;;1.70;1.30;;;23.60;45.00;;;;;;4894786;29;20028;-81
2022/06/16 00:23:46;;;;;;;2.40;1.13;;;23.60;45.10;;;;;;4876884;29;20449;-80
2022/06/16 00:26:19;;;;;;;1.88;1.17;;;23.50;45.00;;;;;;4892977;29;20200;-82
2022/06/16 00:28:48;;;;;;;1.27;1.10;;;23.50;45.10;;;;;;4900818;29;20179;-81
2022/06/16 00:31:21;;;;;;;1.77;1.50;;;23.50;45.20;;;;;;4856147;29;20049;-88
2022/06/16 00:34:08;;;;;;;1.67;1.30;;;23.40;45.10;;;;;;4891816;29;20504;-82
2022/06/16 00:36:51;;;;;;;1.85;1.20;;;23.40;45.30;;;;;;4875946;29;20123;-81
2022/06/16 00:39:19;;;;;;;1.65;1.38;;;23.40;45.20;;;;;;4903637;29;20044;-81
2022/06/16 00:41:47;;;;;;;3.28;1.30;;;23.30;45.20;;;;;;4909251;29;20033;-80
2022/06/16 00:44:21;;;;;;;2.20;1.38;;;23.30;45.20;;;;;;4894495;29;20041;-81
2022/06/16 00:46:53;;;;;;;1.40;1.30;;;23.30;45.40;;;;;;4888970;29;20040;-81
2022/06/16 00:49:40;;;;;;;1.85;1.38;;;23.20;45.20;;;;;;4893122;29;20049;-81
2022/06/16 00:52:50;;;;;;;2.08;1.33;;;23.20;45.30;;;;;;4893162;29;20032;-80
2022/06/16 00:55:19;;;;;;;1.95;1.30;;;23.20;45.40;;;;;;4902015;29;20028;-80
2022/06/16 00:57:59;;;;;;;1.85;1.45;;;23.20;45.40;;;;;;4876528;29;20088;-80
2022/06/16 01:00:46;;;;;;;1.45;1.35;;;23.10;45.40;;;;;;4908889;29;20056;-81
2022/06/16 01:04:51;;;;;;;1.45;1.30;;;23.00;45.40;;;;;;4909519;29;20466;-81
2022/06/16 01:06:02;;;;;;;1.35;1.20;;;23.00;45.40;;;;;;4893138;29;20440;-81
2022/06/16 01:08:29;;;;;;;1.60;1.35;;;23.00;45.40;;;;;;4879503;29;20049;-80
2022/06/16 01:11:05;;;;;;;1.75;1.20;;;22.90;45.40;;;;;;4892088;29;20112;-82
2022/06/16 01:13:55;;;;;;;2.13;1.23;;;22.90;45.50;;;;;;4889020;29;20478;-83
2022/06/16 01:16:45;;;;;;;1.30;1.20;;;22.80;45.50;;;;;;4885802;29;20033;-81
2022/06/16 01:19:35;;;;;;;1.63;1.17;;;22.80;45.50;;;;;;4892502;29;20036;-81
2022/06/16 01:22:18;;;;;;;1.45;1.15;;;22.80;45.50;;;;;;4891709;29;20138;-83
2022/06/16 01:25:21;;;;;;;1.42;1.13;;;22.80;45.60;;;;;;4875245;29;20519;-82
2022/06/16 01:28:19;;;;;;;1.30;1.20;;;22.70;45.60;;;;;;4890678;29;20033;-81
2022/06/16 01:31:13;;;;;;;2.40;1.30;;;22.70;45.60;;;;;;4864598;29;20051;-82
2022/06/16 01:34:05;;;;;;;2.60;1.30;;;22.60;45.60;;;;;;4889059;29;20033;-84
2022/06/16 01:37:16;;;;;;;2.22;1.40;;;22.50;45.70;;;;;;4895630;29;20366;-82
2022/06/16 01:40:07;;;;;;;1.33;1.17;;;22.50;45.80;;;;;;4852777;29;20047;-81
2022/06/16 01:43:11;;;;;;;2.25;1.40;;;22.50;45.80;;;;;;4894072;29;20049;-83
2022/06/16 01:46:26;;;;;;;1.30;1.20;;;22.50;45.80;;;;;;4891507;29;20422;-81
2022/06/16 01:49:15;;;;;;;1.30;1.20;;;22.40;45.80;;;;;;4883097;29;20096;-82
2022/06/16 01:52:01;;;;;;;2.20;1.35;;;22.40;45.80;;;;;;4896864;29;20048;-81
2022/06/16 01:54:35;;;;;;;2.03;1.30;;;22.30;45.80;;;;;;4892780;29;20046;-80
2022/06/16 01:57:23;;;;;;;1.33;1.23;;;22.30;45.80;;;;;;4897895;29;20032;-81
2022/06/16 02:00:16;;;;;;;1.90;1.30;;;22.20;45.90;;;;;;4895483;29;20037;-81
2022/06/16 02:02:56;;;;;;;1.75;1.20;;;22.20;45.90;;;;;;4886778;29;20040;-80
2022/06/16 02:06:04;;;;;;;1.88;1.38;;;22.20;45.90;;;;;;4892926;29;20037;-81
2022/06/16 02:09:00;;;;;;;1.33;1.10;;;22.10;46.00;;;;;;4896558;29;20071;-81
2022/06/16 02:11:42;;;;;;;1.48;1.10;;;22.10;46.00;;;;;;4896055;29;20037;-81
2022/06/16 02:14:49;;;;;;;2.63;1.55;;;22.00;46.00;;;;;;4895572;29;20063;-81
2022/06/16 02:17:29;;;;;;;2.88;1.40;;;22.00;46.10;;;;;;4911457;29;20024;-82
2022/06/16 02:19:57;;;;;;;1.40;1.20;;;22.00;46.10;;;;;;4878529;29;20096;-80
2022/06/16 02:22:31;;;;;;;1.30;1.20;;;21.90;46.00;;;;;;4889969;29;20031;-81
2022/06/16 02:24:59;;;;;;;2.85;1.42;;;21.90;46.10;;;;;;4899474;29;20286;-81
2022/06/16 02:27:32;;;;;;;1.90;1.13;;;21.80;46.10;;;;;;4886209;29;20048;-80
2022/06/16 02:29:59;;;;;;;1.55;1.27;;;21.80;46.10;;;;;;4880526;29;20541;-81
2022/06/16 02:32:44;;;;;;;2.83;1.65;;;21.80;46.20;;;;;;4880806;29;20088;-84
2022/06/16 02:35:49;;;;;;;1.50;1.40;;;21.70;46.20;;;;;;4903057;29;20467;-83
2022/06/16 02:39:12;;;;;;;1.60;1.30;;;21.70;46.30;;;;;;4905179;29;20040;-81
2022/06/16 02:42:43;;;;;;;1.88;1.30;;;21.60;46.30;;;;;;4898910;29;20041;-81
2022/06/16 02:45:35;;;;;;;2.25;1.40;;;21.60;46.30;;;;;;4847060;29;20452;-81
2022/06/16 02:48:40;;;;;;;1.30;1.20;;;21.50;46.40;;;;;;4879024;29;20037;-82
2022/06/16 02:51:16;;;;;;;1.88;1.35;;;21.50;46.50;;;;;;4853470;29;20078;-81
2022/06/16 02:54:21;;;;;;;1.45;1.33;;;21.50;47.10;;;;;;4892367;29;20029;-81
2022/06/16 02:57:03;;;;;;;1.83;1.40;;;21.40;46.50;;;;;;4906572;29;20335;-81
2022/06/16 02:59:38;;;;;;;2.13;1.30;;;21.40;46.50;;;;;;4894069;29;20028;-81
2022/06/16 03:02:12;;;;;;;2.03;1.55;;;21.40;46.50;;;;;;4891414;29;20071;-84
2022/06/16 03:04:44;;;;;;;2.40;1.50;;;21.30;46.50;;;;;;4894865;29;20366;-84
2022/06/16 03:07:14;;;;;;;1.30;1.20;;;21.30;46.60;;;;;;4894278;29;20029;-81
2022/06/16 03:09:47;;;;;;;2.00;1.58;;;21.30;46.60;;;;;;4911277;29;20111;-82
2022/06/16 03:12:15;;;;;;;1.65;1.30;;;21.30;46.70;;;;;;4908150;29;20075;-81
2022/06/16 03:14:44;;;;;;;1.70;1.25;;;21.20;46.60;;;;;;4880460;29;20036;-81
2022/06/16 03:17:12;;;;;;;1.42;1.33;;;21.20;46.70;;;;;;4896156;29;20032;-81
2022/06/16 03:19:41;;;;;;;2.03;1.40;;;21.10;46.70;;;;;;4909895;29;20032;-81
2022/06/16 03:22:07;;;;;;;1.45;1.35;;;21.10;46.70;;;;;;4877946;29;20033;-81
2022/06/16 03:24:33;;;;;;;2.83;1.40;;;21.10;46.70;;;;;;4876091;29;20537;-82
2022/06/16 03:27:04;;;;;;;1.42;1.15;;;21.00;46.70;;;;;;4872282;29;20063;-81
2022/06/16 03:29:36;;;;;;;2.20;1.60;;;21.00;46.80;;;;;;4909331;29;20052;-80
2022/06/16 03:32:04;;;;;;;1.88;1.33;;;20.90;46.70;;;;;;4908382;29;20474;-82
2022/06/16 03:34:31;;;;;;;1.73;1.60;;;21.00;46.80;;;;;;4908522;29;20115;-82
2022/06/16 03:37:02;;;;;;;1.65;1.33;;;20.90;46.80;;;;;;4876873;29;20052;-83
2022/06/16 03:39:42;;;;;;;2.15;1.40;;;20.90;46.90;;;;;;4873271;29;20120;-80
2022/06/16 03:42:10;;;;;;;2.05;1.50;;;20.80;46.80;;;;;;4894287;29;20108;-81
2022/06/16 03:44:36;;;;;;;2.28;1.50;;;20.80;46.90;;;;;;4878160;29;20081;-83
2022/06/16 03:47:02;;;;;;;1.50;1.38;;;20.70;46.90;;;;;;4878099;29;20048;-83
2022/06/16 03:49:40;;;;;;;1.73;1.50;;;20.70;46.90;;;;;;4908097;29;20052;-80
2022/06/16 03:52:08;;;;;;;1.45;1.35;;;20.70;47.60;;;;;;4869572;29;20036;-81
2022/06/16 03:54:38;;;;;;;2.35;1.52;;;20.70;47.00;;;;;;4892592;29;20025;-81
2022/06/16 03:57:17;;;;;;;2.30;1.52;;;20.60;47.00;;;;;;4875495;29;20036;-82
2022/06/16 03:59:43;;;;;;;1.92;1.50;;;20.60;47.00;;;;;;4893239;29;20043;-80
2022/06/16 04:02:24;;;;;;;1.50;1.38;;;20.50;47.00;;;;;;4871115;29;20488;-81
2022/06/16 04:04:51;;;;;;;2.13;1.75;;;20.50;47.10;;;;;;4889454;29;20053;-82
2022/06/16 04:07:17;;;;;;;2.28;1.63;;;20.50;47.20;;;;;;4871764;29;20516;-82
2022/06/16 04:09:58;;;;;;;2.22;1.67;;;20.50;47.20;;;;;;4893762;29;20048;-81
2022/06/16 04:12:26;;;;;;;1.80;1.40;;;20.40;47.20;;;;;;4893908;29;20508;-83
2022/06/16 04:14:54;;;;;;;1.40;1.25;;;20.40;47.30;;;;;;4878290;29;20033;-82
2022/06/16 04:17:22;;;;;;;2.10;1.50;;;20.40;47.30;;;;;;4862151;29;20096;-81
2022/06/16 04:23:10;;;;;;;1.65;1.40;;;20.30;47.20;;;;;;4834147;29;20069;-81
2022/06/16 04:25:37;;;;;;;1.83;1.23;;;20.30;47.20;;;;;;4833746;29;20055;-82
2022/06/16 04:28:10;;;;;;;1.40;1.30;;;20.30;47.30;;;;;;4891878;29;20103;-81
2022/06/16 04:30:43;;;;;;;1.73;1.42;;;20.20;47.30;;;;;;4878135;29;20033;-81
2022/06/16 04:33:12;;;;;;;2.05;1.50;;;20.20;47.40;;;;;;4909054;29;20040;-82
2022/06/16 04:35:40;;;;;;;1.83;1.42;;;20.20;47.50;;;;;;4877206;29;20040;-83
2022/06/16 04:38:08;;;;;;;1.40;1.20;;;20.10;47.50;;;;;;4864529;29;20063;-84
2022/06/16 04:40:36;;;;;;;1.13;1.02;;;20.10;47.50;;;;;;4863591;29;20028;-84
2022/06/16 04:43:06;;;;;;;1.60;1.30;;;20.10;47.60;;;;;;4884688;29;20059;-84
2022/06/16 04:45:32;;;;;;;2.55;1.35;;;20.00;47.50;;;;;;4909701;29;20484;-83
2022/06/16 04:47:58;;;;;;;1.85;1.40;;;20.00;47.60;;;;;;4877822;29;20032;-83
2022/06/16 04:50:28;;;;;;;2.55;1.52;;;20.00;47.70;;;;;;4871325;29;20059;-84
2022/06/16 04:52:55;;;;;;;2.75;1.45;;;20.00;47.70;;;;;;4877354;29;20120;-83
2022/06/16 04:55:26;;;;;;;1.58;1.45;;;20.00;47.90;;;;;;4878305;29;20128;-83
2022/06/16 04:58:10;;;;;;;1.35;1.23;;;19.90;47.70;;;;;;4906592;29;20075;-83
2022/06/16 05:00:52;;;;;;;1.45;1.25;;;19.90;47.80;;;;;;4878731;29;20029;-83
2022/06/16 05:03:39;;;;;;;1.42;1.30;;;19.90;47.80;;;;;;4887965;29;20099;-82
2022/06/16 05:06:21;;;;;;;;;;;19.90;48.00;;;;;;4894156;29;20041;-79
2022/06/16 05:09:06;;;;;;;1.52;1.30;;;19.80;47.80;;;;;;4894539;29;19923;-81
2022/06/16 05:12:04;;;;;;;2.10;1.42;;;19.80;47.90;;;;;;4865036;29;20040;-83
2022/06/16 05:14:30;;;;;;;1.75;1.60;;;19.80;48.10;;;;;;4894170;29;20430;-82
2022/06/16 05:17:13;;;;;;;1.60;1.50;;;19.70;48.10;;;;;;4897018;29;20040;-83
2022/06/16 05:19:58;;;;;;;1.48;1.33;;;19.70;48.20;;;;;;4896645;29;20036;-87
2022/06/16 05:22:42;;;;;;;2.22;1.40;;;19.70;48.20;;;;;;4895781;29;20512;-84
2022/06/16 05:25:42;;;;;;;1.63;1.40;;;19.70;48.20;;;;;;4893807;29;20037;-81
2022/06/16 05:28:23;;;;;;;2.15;1.58;;;19.70;48.30;;;;;;4885080;29;20052;-83
2022/06/16 05:31:04;;;;;;;1.90;1.48;;;19.70;48.30;;;;;;4877758;29;20024;-82
2022/06/16 05:33:49;;;;;;;2.33;1.42;;;19.70;48.40;;;;;;4868290;29;20124;-85
2022/06/16 05:36:28;;;;;;;2.05;1.35;;;19.70;48.40;;;;;;4882654;29;20028;-84
2022/06/16 05:39:09;;;;;;;2.15;1.38;;;19.70;48.40;;;;;;4911137;29;20392;-82
2022/06/16 05:42:01;;;;;;;1.20;1.10;;;19.60;48.50;;;;;;4892306;29;20049;-85
2022/06/16 05:44:51;;;;;;;1.23;1.13;;;19.70;48.60;;;;;;4885973;29;20051;-82
2022/06/16 05:47:45;;;;;;;1.75;1.50;;;19.60;48.50;;;;;;4891490;29;20033;-85
2022/06/16 05:50:15;;;;;;;1.60;1.30;;;19.60;48.60;;;;;;4867452;29;20050;-85
2022/06/16 05:52:41;;;;;;;2.13;1.25;;;19.60;48.70;;;;;;4913686;29;20042;-86
2022/06/16 05:55:27;;;;;;;1.50;1.35;;;19.60;48.70;;;;;;4909596;29;20438;-86
2022/06/16 05:57:53;;;;;;;1.58;1.40;;;19.60;48.70;;;;;;4913862;29;20028;-87
2022/06/16 06:00:19;;;;;;;1.55;1.20;;;19.60;48.80;;;;;;4897148;29;20485;-87
2022/06/16 06:02:58;;;;;;;1.33;1.23;;;19.60;48.80;;;;;;4897830;29;20037;-88
2022/06/16 06:05:30;;;;;;;1.65;1.20;;;19.60;48.80;;;;;;4913884;29;20039;-84
2022/06/16 06:16:25;;;;;;;1.52;1.10;;;19.60;48.90;;;;;;4895405;29;20070;-87
2022/06/16 06:18:59;;;;;;;1.10;1.00;;;19.60;48.90;;;;;;4896519;29;20474;-85
2022/06/16 06:24:11;;;;;;;2.22;1.15;;;19.60;49.00;;;;;;4910283;29;20037;-86
2022/06/16 06:26:38;;;;;;;1.70;1.20;;;19.60;48.90;;;;;;4898155;29;20052;-85
2022/06/16 06:29:05;;;;;;;0.90;0.90;;;19.60;49.00;;;;;;4888282;29;20041;-83
2022/06/16 06:31:30;;;;;;;1.17;1.08;;;19.60;49.00;;;;;;4904379;29;20047;-85
2022/06/16 06:33:56;;;;;;;1.33;0.90;;;19.60;49.00;;;;;;4882728;29;20036;-87
2022/06/16 06:36:22;;;;;;;1.92;1.10;;;19.60;49.00;;;;;;4897528;29;20096;-85
2022/06/16 06:38:48;;;;;;;1.90;1.30;;;19.60;49.00;;;;;;4886392;29;20128;-85
2022/06/16 06:41:15;;;;;;;0.93;0.93;;;19.60;49.10;;;;;;4898562;29;20032;-86
2022/06/16 06:43:43;;;;;;;1.58;1.25;;;19.60;49.10;;;;;;4897323;29;20044;-86
2022/06/16 06:46:10;;;;;;;1.55;0.90;;;19.60;49.10;;;;;;4911597;29;20029;-87
2022/06/16 06:48:36;;;;;;;1.85;0.95;;;19.70;49.10;;;;;;4899117;29;20121;-87
2022/06/16 06:51:02;;;;;;;1.08;0.98;;;19.60;49.10;;;;;;4890739;29;20116;-90
2022/06/16 06:53:28;;;;;;;1.00;0.90;;;19.60;49.00;;;;;;4908115;29;20068;-85
2022/06/16 06:55:54;;;;;;;1.25;1.10;;;19.70;49.10;;;;;;4880157;29;20442;-86
2022/06/16 06:58:32;;;;;;;2.10;1.13;;;19.60;49.00;;;;;;4911398;29;20531;-85
2022/06/16 07:01:01;;;;;;;1.45;1.00;;;19.70;49.20;;;;;;4896653;29;20127;-84
2022/06/16 07:03:28;;;;;;;1.10;1.00;;;19.70;49.10;;;;;;4912293;29;20032;-83
2022/06/16 07:06:13;;;;;;;0.90;0.90;;;19.70;49.10;;;;;;4877585;29;20128;-83
2022/06/16 07:08:51;;;;;;;0.93;0.93;;;19.70;49.20;;;;;;4912603;29;20035;-83
2022/06/16 07:11:21;;;;;;;1.25;1.00;;;19.70;49.10;;;;;;4875661;29;20052;-83
2022/06/16 07:13:49;;;;;;;1.30;1.00;;;19.70;49.10;;;;;;4889962;29;20132;-85
2022/06/16 07:16:25;;;;;;;0.98;0.80;;;19.70;49.00;;;;;;4895719;29;20032;-86
2022/06/16 07:19:08;;;;;;;1.48;0.85;;;19.70;49.00;;;;;;4894661;29;20039;-84
2022/06/16 07:21:35;;;;;;;1.58;1.08;;;19.80;49.10;;;;;;4893358;29;20041;-83
2022/06/16 07:24:07;;;;;;;0.90;0.90;;;19.80;49.00;;;;;;4880395;29;20172;-84
2022/06/16 07:26:45;;;;;;;0.90;0.82;;;19.80;49.10;;;;;;4889450;29;20487;-85
2022/06/16 07:29:32;;;;;;;0.80;0.80;;;19.80;49.00;;;;;;4896995;29;20059;-84
2022/06/16 07:31:59;;;;;;;1.23;1.00;;;19.90;48.90;;;;;;4879827;29;20033;-84
2022/06/16 07:34:26;;;;;;;1.67;0.80;;;19.90;49.50;;;;;;4910902;29;20033;-82
2022/06/16 07:36:53;;;;;;;1.23;0.88;;;19.90;48.80;;;;;;4910712;29;20032;-81
2022/06/16 07:39:19;;;;;;;0.80;0.80;;;20.00;48.90;;;;;;4910148;29;20029;-79
2022/06/16 07:41:44;;;;;;;1.35;0.95;;;20.00;48.80;;;;;;4879885;29;20044;-78
2022/06/16 07:44:14;;;;;;;1.75;1.00;;;20.10;48.70;;;;;;4864575;29;20037;-82
2022/06/16 07:46:42;;;;;;;1.70;1.00;;;20.20;48.70;;;;;;4895452;29;20131;-77
2022/06/16 07:49:11;;;;;;;1.00;0.90;;;20.20;48.70;;;;;;4895264;29;20028;-79
2022/06/16 07:51:39;;;;;;;1.15;1.05;;;20.30;48.70;;;;;;4896915;29;20481;-77
2022/06/16 07:54:06;;;;;;;1.00;0.85;;;20.30;48.60;;;;;;4864962;29;20130;-78
2022/06/16 07:56:32;;;;;;;1.00;0.90;;;20.40;48.50;;;;;;4895544;29;20044;-78
2022/06/16 07:58:57;;;;;;;1.02;0.85;;;20.40;48.50;;;;;;4880248;29;20037;-79
2022/06/16 08:01:23;;;;;;;0.95;0.85;;;20.50;48.40;;;;;;4896509;29;20127;-85
2022/06/16 08:03:57;;;;;;;0.98;0.98;;;20.60;48.40;;;;;;4911715;29;20064;-88
2022/06/16 08:06:28;;;;;;;0.88;0.80;;;20.70;48.40;;;;;;4889069;29;20056;-86
2022/06/16 08:08:54;;;;;;;0.70;0.70;;;20.70;48.30;;;;;;4911490;29;20084;-87
2022/06/16 08:14:05;;;;;;;1.25;0.88;;;20.90;48.20;;;;;;4890696;29;20032;-86
2022/06/16 08:16:33;;;;;;;1.30;1.13;;;21.00;48.10;;;;;;4912029;29;20031;-87
2022/06/16 08:19:02;;;;;;;1.35;1.00;;;21.00;48.10;;;;;;4902841;29;20036;-87
2022/06/16 08:21:30;;;;;;;1.83;1.00;;;21.10;48.00;;;;;;4880878;29;20032;-85
2022/06/16 08:23:56;;;;;;;1.08;0.80;;;21.20;48.00;;;;;;4896161;29;20067;-88
2022/06/16 08:26:23;;;;;;;3.15;1.10;;;21.30;47.90;;;;;;4912012;29;20048;-90
2022/06/16 08:28:52;;;;;;;1.50;1.00;;;21.40;47.90;;;;;;4897893;29;20033;-87
2022/06/16 08:31:29;;;;;;;1.20;1.10;;;21.40;47.80;;;;;;4896272;29;20433;-90
2022/06/16 08:33:55;;;;;;;1.20;1.02;;;21.50;47.80;;;;;;4911254;29;20076;-90
2022/06/16 08:36:21;;;;;;;1.02;0.90;;;21.60;47.70;;;;;;4911889;29;20663;-85
2022/06/16 08:38:54;;;;;;;1.30;0.88;;;21.70;47.70;;;;;;4896178;29;20060;-85
2022/06/16 08:41:43;;;;;;;0.82;0.80;;;21.80;47.70;;;;;;4895981;29;20461;-84
2022/06/16 08:44:38;;;;;;;0.80;0.80;;;21.90;47.70;;;;;;4894616;29;20033;-85
2022/06/16 08:47:17;;;;;;;0.80;0.80;;;22.00;47.70;;;;;;4887783;29;20174;-86
2022/06/16 08:49:48;;;;;;;1.73;0.90;;;22.10;47.70;;;;;;4902861;29;20024;-87
2022/06/16 08:52:36;;;;;;;1.05;0.80;;;22.20;47.60;;;;;;4895253;29;20043;-84
2022/06/16 08:55:22;;;;;;;2.33;0.90;;;22.30;47.70;;;;;;4910938;29;20036;-86
2022/06/16 08:58:04;;;;;;;1.67;1.23;;;22.40;47.70;;;;;;4902493;29;20048;-87
2022/06/16 09:00:53;;;;;;;0.73;0.73;;;22.50;47.50;;;;;;4903593;29;20025;-87
2022/06/16 09:03:48;;;;;;;0.70;0.68;;;22.60;47.50;;;;;;4885311;29;20049;-86
2022/06/16 09:06:35;;;;;;;1.50;1.00;;;22.70;47.60;;;;;;4908563;29;20044;-86
2022/06/16 09:12:48;;;;;;;0.80;0.80;;;22.90;47.50;;;;;;4890461;29;20033;-84
2022/06/16 09:15:52;;;;;;;1.45;1.00;;;23.00;47.40;;;;;;4891287;29;20037;-84
2022/06/16 09:18:45;;;;;;;1.20;1.08;;;23.10;47.40;;;;;;4879920;29;20028;-84
2022/06/16 09:21:42;;;;;;;0.85;0.85;;;23.20;47.40;;;;;;4889811;29;20052;-84
2022/06/16 09:24:41;;;;;;;0.70;0.70;;;23.30;47.50;;;;;;4911072;29;20040;-86
2022/06/16 09:27:17;;;;;;;0.77;0.70;;;23.50;47.50;;;;;;4879752;29;20037;-85
2022/06/16 09:29:58;;;;;;;1.35;1.00;;;23.60;47.40;;;;;;4911036;29;20061;-86
2022/06/16 09:32:27;;;;;;;1.00;0.82;;;23.70;47.40;;;;;;4880999;29;20025;-89
2022/06/16 09:35:10;;;;;;;1.00;0.77;;;23.80;47.30;;;;;;4897107;29;20044;-85
2022/06/16 09:37:55;;;;;;;1.08;0.80;;;23.90;47.40;;;;;;4910925;29;20024;-88
2022/06/16 09:40:42;;;;;;;1.10;0.95;;;24.00;47.20;;;;;;4885162;29;20048;-88
2022/06/16 09:43:42;;;;;;;0.82;0.70;;;24.10;47.10;;;;;;4898632;29;20043;-84
2022/06/16 09:46:18;;;;;;;1.08;0.88;;;24.20;47.00;;;;;;4893532;29;20145;-84
2022/06/16 09:48:59;;;;;;;0.82;0.80;;;24.30;46.80;;;;;;4893087;29;20032;-84
2022/06/16 09:51:33;;;;;;;0.80;0.80;;;24.40;47.50;;;;;;4909992;29;20055;-88
2022/06/16 09:54:01;;;;;;;1.00;0.80;;;24.50;46.70;;;;;;4894498;29;20028;-86
2022/06/16 09:56:43;;;;;;;0.70;0.70;;;24.60;46.60;;;;;;4893710;29;20054;-86
2022/06/16 09:59:10;;;;;;;1.25;0.90;;;24.70;46.60;;;;;;4911926;29;20033;-85
2022/06/16 10:02:04;;;;;;;1.10;1.00;;;24.80;46.50;;;;;;4908495;29;20029;-87
2022/06/16 10:04:30;;;;;;;0.75;0.73;;;24.90;47.30;;;;;;4912129;29;20032;-85
2022/06/16 10:07:09;;;;;;;1.23;0.90;;;25.10;46.70;;;;;;4897742;29;20029;-87
2022/06/16 10:09:59;;;;;;;1.08;0.98;;;25.10;46.60;;;;;;4891782;29;20043;-85
2022/06/16 10:12:37;;;;;;;1.25;0.80;;;25.20;46.60;;;;;;4882204;29;20032;-84
2022/06/16 10:15:13;;;;;;;1.08;1.00;;;25.40;46.70;;;;;;4904200;29;20367;-87
2022/06/16 10:17:42;;;;;;;1.13;1.00;;;25.50;46.60;;;;;;4891557;29;20028;-86
2022/06/16 10:20:13;;;;;;;1.23;1.05;;;25.50;46.50;;;;;;4893876;29;20045;-86
2022/06/16 10:22:46;;;;;;;1.58;1.13;;;25.70;46.60;;;;;;4897825;29;20032;-86
2022/06/16 10:25:48;;;;;;;0.88;0.88;;;25.70;46.50;;;;;;4878894;29;20037;-87
2022/06/16 10:28:45;;;;;;;1.75;1.08;;;25.80;46.60;;;;;;4899982;29;20072;-89
2022/06/16 10:31:32;;;;;;;1.48;1.00;;;26.00;46.50;;;;;;4910632;29;20083;-89
2022/06/16 10:33:58;;;;;;;1.50;1.02;;;26.00;46.40;;;;;;4888734;29;20032;-86
2022/06/16 10:36:26;;;;;;;1.20;1.00;;;26.10;46.30;;;;;;4881508;29;20767;-85
2022/06/16 10:39:04;;;;;;;1.40;1.05;;;26.20;46.20;;;;;;4865816;29;20481;-85
2022/06/16 10:41:39;;;;;;;1.35;0.93;;;26.30;46.20;;;;;;4895183;29;20029;-86
2022/06/16 10:44:14;;;;;;;0.75;0.70;;;26.40;46.10;;;;;;4911934;29;20072;-85
2022/06/16 10:46:52;;;;;;;1.88;0.80;;;26.50;46.10;;;;;;4896138;29;20123;-86
2022/06/16 10:49:25;;;;;;;1.30;0.98;;;26.60;46.10;;;;;;4895328;29;20028;-85
2022/06/16 10:51:59;;;;;;;1.40;1.20;;;26.70;46.10;;;;;;4891437;29;20501;-85
2022/06/16 10:54:32;;;;;;;1.05;0.98;;;26.80;46.10;;;;;;4909148;29;20028;-85
2022/06/16 10:57:29;;;;;;;1.73;1.02;;;26.90;46.10;;;;;;4891149;29;20032;-86
2022/06/16 11:00:11;;;;;;;1.80;1.05;;;26.90;46.20;;;;;;4837359;29;20042;-85
2022/06/16 11:02:58;;;;;;;1.80;1.08;;;27.10;46.10;;;;;;4893672;29;20033;-85
2022/06/16 11:05:27;;;;;;;1.27;0.88;;;27.10;46.10;;;;;;4910483;29;20033;-86
2022/06/16 11:08:03;;;;;;;1.00;0.90;;;27.20;46.00;;;;;;4879807;29;20120;-87
2022/06/16 11:10:33;;;;;;;1.08;0.88;;;27.30;46.10;;;;;;4910511;29;20048;-87
2022/06/16 11:12:59;;;;;;;0.98;0.98;;;27.30;46.10;;;;;;4895047;29;20115;-86
2022/06/16 11:15:36;;;;;;;1.73;1.08;;;27.40;46.20;;;;;;4911679;29;20033;-87
2022/06/16 11:18:07;;;;;;;1.17;1.05;;;27.50;46.40;;;;;;4911459;29;20036;-87
2022/06/16 11:20:39;;;;;;;1.13;1.02;;;27.50;46.30;;;;;;4911398;29;20029;-88
2022/06/16 11:23:43;;;;;;;1.67;1.10;;;27.60;46.50;;;;;;4888922;29;20033;-87
2022/06/16 11:26:27;;;;;;;1.92;1.15;;;27.60;46.60;;;;;;4896292;29;20111;-87
2022/06/16 11:28:58;;;;;;;1.20;1.10;;;27.70;46.70;;;;;;4897131;29;20108;-89
2022/06/16 11:31:45;;;;;;;1.05;0.90;;;27.70;46.90;;;;;;4895319;29;20040;-88
2022/06/16 11:34:32;;;;;;;1.77;1.02;;;27.70;47.00;;;;;;4888842;29;20269;-88
2022/06/16 11:37:36;;;;;;;0.98;0.90;;;27.80;47.10;;;;;;4895394;29;20060;-88
2022/06/16 11:40:23;;;;;;;1.50;1.00;;;27.80;47.20;;;;;;4895398;29;20036;-86
2022/06/16 11:43:12;;;;;;;1.73;1.10;;;27.80;47.10;;;;;;4893506;29;20052;-88
2022/06/16 11:45:55;;;;;;;1.33;1.00;;;27.80;47.10;;;;;;4899827;29;20028;-88
2022/06/16 11:48:26;;;;;;;1.10;1.00;;;27.80;47.10;;;;;;4900884;29;20092;-87
2022/06/16 11:51:08;;;;;;;1.08;0.98;;;27.90;47.10;;;;;;4896177;29;20033;-87
2022/06/16 11:53:47;;;;;;;1.42;1.05;;;27.90;47.10;;;;;;4897383;29;20039;-87
2022/06/16 11:56:35;;;;;;;1.10;0.75;;;27.90;47.10;;;;;;4895992;29;20067;-87
2022/06/16 11:59:24;;;;;;;1.42;0.93;;;27.90;47.30;;;;;;4880230;29;20503;-86
2022/06/16 12:02:17;;;;;;;1.10;1.00;;;27.90;47.30;;;;;;4894853;29;20047;-86
2022/06/16 12:04:50;;;;;;;1.75;1.10;;;27.90;47.20;;;;;;4888509;29;20044;-86
2022/06/16 12:07:38;;;;;;;1.02;1.00;;;27.90;47.10;;;;;;4910389;29;20043;-86
2022/06/16 12:10:20;;;;;;;1.30;1.05;;;28.00;47.10;;;;;;4908511;29;20128;-86
2022/06/16 12:13:14;;;;;;;1.08;0.98;;;28.00;47.60;;;;;;4906997;29;20039;-87
2022/06/16 12:15:54;;;;;;;1.38;1.00;;;27.90;46.90;;;;;;4894433;29;20104;-86
2022/06/16 12:18:40;;;;;;;1.20;1.00;;;28.00;47.00;;;;;;4899284;29;20093;-87
2022/06/16 12:21:17;;;;;;;1.10;1.00;;;27.90;46.90;;;;;;4908563;29;20035;-87
2022/06/16 12:24:02;;;;;;;1.17;1.08;;;28.00;47.00;;;;;;4896418;29;20056;-86
2022/06/16 12:26:51;;;;;;;1.05;0.95;;;28.00;47.10;;;;;;4890130;29;20060;-90
2022/06/16 12:29:50;;;;;;;1.10;1.00;;;28.00;46.90;;;;;;4893941;29;20033;-86
2022/06/16 12:32:23;;;;;;;1.85;1.00;;;28.00;46.90;;;;;;4876128;29;20041;-89
2022/06/16 12:35:27;;;;;;;1.30;1.20;;;28.00;46.80;;;;;;4901019;29;20121;-88
2022/06/16 12:38:07;;;;;;;1.10;1.00;;;28.00;46.90;;;;;;4907261;29;20032;-90
2022/06/16 12:40:45;;;;;;;1.50;1.20;;;28.00;46.90;;;;;;4889081;29;20142;-86
2022/06/16 12:43:20;;;;;;;1.00;0.98;;;28.00;47.50;;;;;;4909239;29;20037;-85
2022/06/16 12:46:01;;;;;;;1.65;1.17;;;27.90;46.70;;;;;;4894174;29;20033;-87
2022/06/16 12:48:52;;;;;;;0.90;0.90;;;28.00;46.60;;;;;;4893549;29;20383;-87
2022/06/16 12:51:25;;;;;;;1.13;1.00;;;28.00;47.10;;;;;;4909318;29;20545;-86
2022/06/16 12:54:11;;;;;;;1.33;1.20;;;28.00;46.30;;;;;;4895130;29;20033;-85
2022/06/16 12:56:51;;;;;;;1.67;1.13;;;27.90;46.20;;;;;;4885741;29;20025;-88
2022/06/16 12:59:24;;;;;;;1.20;1.10;;;28.00;46.30;;;;;;4892567;29;20029;-87
2022/06/16 13:01:54;;;;;;;1.30;1.17;;;28.00;46.30;;;;;;4894947;29;20036;-86
2022/06/16 13:04:40;;;;;;;1.45;1.17;;;28.00;46.20;;;;;;4893477;29;20493;-92
2022/06/16 13:07:15;;;;;;;2.10;1.20;;;27.90;45.80;;;;;;4912665;29;20032;-90
2022/06/16 13:09:42;;;;;;;1.15;1.02;;;28.00;45.50;;;;;;4890673;29;20029;-86
2022/06/16 13:12:33;;;;;;;1.45;1.20;;;28.00;45.50;;;;;;4907178;29;20075;-89
2022/06/16 13:15:09;;;;;;;1.13;1.00;;;28.00;45.50;;;;;;4896141;29;20033;-86
2022/06/16 13:17:47;;;;;;;1.20;1.02;;;28.00;45.50;;;;;;4910261;29;20040;-87
2022/06/16 13:20:19;;;;;;;1.30;1.20;;;28.00;45.60;;;;;;4897176;29;20052;-86
2022/06/16 13:23:10;;;;;;;2.05;1.20;;;28.00;45.70;;;;;;4911648;29;20043;-86
2022/06/16 13:25:46;;;;;;;1.48;1.00;;;28.00;45.90;;;;;;4891471;29;20048;-85
2022/06/16 13:28:29;;;;;;;1.10;1.00;;;28.00;45.90;;;;;;4911110;29;20037;-87
2022/06/16 13:31:12;;;;;;;1.42;1.10;;;28.00;45.90;;;;;;4889646;29;20044;-87
2022/06/16 13:33:49;;;;;;;1.52;1.15;;;28.00;45.90;;;;;;4914311;29;20052;-86
2022/06/16 13:36:40;;;;;;;1.50;1.23;;;28.00;45.90;;;;;;4911162;29;20032;-90
2022/06/16 13:39:09;;;;;;;1.30;1.20;;;28.00;46.00;;;;;;4907034;29;20064;-87
2022/06/16 13:41:38;;;;;;;1.75;1.13;;;28.10;46.00;;;;;;4881997;29;20044;-84
2022/06/16 13:44:20;;;;;;;1.23;1.10;;;28.10;46.10;;;;;;4913578;29;20044;-86
2022/06/16 13:47:08;;;;;;;1.33;1.10;;;28.10;46.10;;;;;;4891161;29;20048;-88
2022/06/16 13:49:47;;;;;;;1.30;1.20;;;28.10;46.20;;;;;;4897573;29;20044;-88
2022/06/16 13:52:13;;;;;;;1.38;1.10;;;28.10;46.10;;;;;;4897984;29;20032;-86
2022/06/16 13:54:41;;;;;;;1.15;1.00;;;28.10;46.10;;;;;;4897532;29;20437;-90
2022/06/16 13:57:35;;;;;;;1.35;1.23;;;28.10;46.10;;;;;;4899445;29;20036;-87
2022/06/16 14:00:28;;;;;;;1.48;1.08;;;28.10;46.20;;;;;;4878124;29;20044;-85
2022/06/16 14:03:01;;;;;;;1.10;0.95;;;28.20;46.10;;;;;;4913387;29;20160;-85
2022/06/16 14:05:34;;;;;;;1.00;1.00;;;28.10;46.10;;;;;;4914437;29;20055;-87
2022/06/16 14:08:07;;;;;;;1.35;0.95;;;28.20;46.10;;;;;;4913413;29;20043;-86